Time;durP1;ratioP1;P1;durP2;ratioP2;P2;SDS_P1;SDS_P2;PMS_P1;PMS_P2;Temp;Humidity;BMP_temperature;BMP_pressure;BME280_temperature;BME280_humidity;BME280_pressure;Samples;Min_cycle;Max_cycle;Signal;HPM_P1;HPM_P2
2020/12/30 00:00:30;;;;;;;6.37;5.17;;;3.00;99.90;;;;;;5034088;28;20216;-75
2020/12/30 00:02:56;;;;;;;5.30;4.60;;;3.00;99.90;;;;;;5023843;28;20275;-76
2020/12/30 00:05:22;;;;;;;5.63;4.97;;;3.10;99.90;;;;;;5033463;28;20240;-76
2020/12/30 00:07:48;;;;;;;6.40;4.87;;;3.10;99.90;;;;;;5016163;28;20425;-76
2020/12/30 00:10:17;;;;;;;8.82;5.35;;;3.10;99.90;;;;;;5012823;28;20496;-76
2020/12/30 00:12:43;;;;;;;4.85;4.38;;;3.00;99.90;;;;;;5011937;28;20277;-76
2020/12/30 00:15:09;;;;;;;4.27;3.57;;;3.00;99.90;;;;;;5012342;28;20288;-77
2020/12/30 00:17:38;;;;;;;4.73;4.17;;;3.10;99.90;;;;;;5031377;28;20436;-76
2020/12/30 00:20:04;;;;;;;6.70;3.78;;;3.00;99.90;;;;;;5031533;28;20230;-76
2020/12/30 00:22:30;;;;;;;5.03;3.80;;;3.10;99.90;;;;;;5011385;28;20267;-77
2020/12/30 00:24:55;;;;;;;5.10;3.90;;;3.10;99.90;;;;;;5011633;28;20162;-76
2020/12/30 00:27:21;;;;;;;6.30;4.67;;;3.20;99.90;;;;;;5028062;28;20220;-76
2020/12/30 00:29:47;;;;;;;5.40;4.50;;;3.10;99.90;;;;;;5023970;28;20205;-76
2020/12/30 00:32:12;;;;;;;4.60;3.50;;;3.20;99.90;;;;;;5011199;28;20218;-76
2020/12/30 00:34:40;;;;;;;4.93;4.43;;;3.10;99.90;;;;;;5012073;28;20656;-76
2020/12/30 00:37:06;;;;;;;5.38;4.03;;;3.10;99.90;;;;;;5010999;28;20267;-76
2020/12/30 00:39:32;;;;;;;5.83;4.90;;;3.10;99.90;;;;;;5016514;28;20644;-77
2020/12/30 00:41:57;;;;;;;6.37;4.40;;;3.20;99.90;;;;;;5030679;28;20205;-76
2020/12/30 00:44:24;;;;;;;5.53;4.70;;;3.20;99.90;;;;;;5030784;28;20196;-76
2020/12/30 00:46:57;;;;;;;10.10;4.97;;;3.20;99.90;;;;;;5031055;28;20217;-77
2020/12/30 00:49:23;;;;;;;5.55;3.90;;;3.10;99.90;;;;;;5022989;28;20463;-76
2020/12/30 00:51:54;;;;;;;13.90;9.07;;;3.10;99.90;;;;;;5010922;28;20285;-77
2020/12/30 00:54:20;;;;;;;9.55;6.97;;;3.10;99.90;;;;;;5019129;28;20304;-77
2020/12/30 00:56:47;;;;;;;9.77;7.10;;;3.20;99.90;;;;;;5030650;28;20288;-76
2020/12/30 00:59:14;;;;;;;8.20;6.60;;;3.10;99.90;;;;;;5012362;28;20229;-76
2020/12/30 01:01:40;;;;;;;8.82;5.70;;;3.10;99.90;;;;;;5023371;28;20587;-76
2020/12/30 01:04:06;;;;;;;7.45;6.30;;;3.10;99.90;;;;;;5032910;28;20212;-75
2020/12/30 01:06:32;;;;;;;6.77;5.93;;;3.20;99.90;;;;;;5030157;28;20220;-76
2020/12/30 01:08:57;;;;;;;6.10;5.50;;;3.20;99.90;;;;;;5032139;28;20663;-76
2020/12/30 01:11:28;;;;;;;6.13;5.40;;;3.10;99.90;;;;;;5023507;28;20476;-77
2020/12/30 01:13:55;;;;;;;5.35;4.85;;;3.10;99.90;;;;;;5011376;28;20201;-76
2020/12/30 01:16:21;;;;;;;6.13;5.20;;;3.00;99.90;;;;;;5010166;28;20575;-76
2020/12/30 01:18:47;;;;;;;6.23;5.40;;;3.00;99.90;;;;;;5011836;28;20479;-76
2020/12/30 01:21:13;;;;;;;7.05;5.70;;;3.00;99.90;;;;;;5020816;28;20208;-76
2020/12/30 01:23:38;;;;;;;7.43;4.97;;;3.00;99.90;;;;;;5031168;28;20177;-76
2020/12/30 01:26:04;;;;;;;5.50;5.00;;;2.90;99.90;;;;;;5028309;28;20251;-76
2020/12/30 01:28:30;;;;;;;5.50;4.53;;;2.90;99.90;;;;;;5031104;28;20169;-76
2020/12/30 01:30:55;;;;;;;6.23;5.60;;;2.90;99.90;;;;;;5031218;28;20209;-75
2020/12/30 01:33:21;;;;;;;5.10;4.63;;;2.90;99.90;;;;;;5032485;28;20186;-76
2020/12/30 01:35:47;;;;;;;7.03;4.70;;;2.90;99.90;;;;;;5020364;28;20225;-75
2020/12/30 01:38:13;;;;;;;4.90;4.40;;;2.90;99.90;;;;;;5014884;28;20180;-76
2020/12/30 01:40:39;;;;;;;5.57;4.80;;;2.90;99.90;;;;;;5026265;28;20217;-76
2020/12/30 01:43:05;;;;;;;7.50;4.97;;;2.90;99.90;;;;;;5035346;28;20195;-75
2020/12/30 01:45:30;;;;;;;4.70;4.10;;;2.90;99.90;;;;;;5020839;28;20229;-76
2020/12/30 01:47:56;;;;;;;5.80;4.40;;;2.90;99.90;;;;;;5016796;28;20166;-76
2020/12/30 01:50:22;;;;;;;5.97;4.60;;;2.90;99.90;;;;;;5028036;28;20166;-76
2020/12/30 01:52:48;;;;;;;5.80;5.20;;;2.90;99.90;;;;;;5034455;28;20189;-76
2020/12/30 01:55:19;;;;;;;6.87;5.33;;;2.90;99.90;;;;;;5022098;28;20316;-76
2020/12/30 01:57:45;;;;;;;8.35;4.30;;;2.90;99.90;;;;;;5014348;28;20412;-77
2020/12/30 02:00:10;;;;;;;6.10;4.70;;;2.90;99.90;;;;;;5027466;28;20631;-76
2020/12/30 02:02:40;;;;;;;8.13;5.60;;;2.80;99.90;;;;;;5033802;28;20575;-76
2020/12/30 02:05:09;;;;;;;4.95;4.45;;;2.90;99.90;;;;;;5033737;28;20162;-76
2020/12/30 02:07:36;;;;;;;5.05;4.47;;;2.90;99.90;;;;;;5033667;28;20208;-76
2020/12/30 02:10:03;;;;;;;5.47;4.30;;;2.80;99.90;;;;;;5034028;28;20640;-76
2020/12/30 02:12:29;;;;;;;7.50;4.47;;;2.80;99.90;;;;;;5035801;28;20236;-76
2020/12/30 02:14:55;;;;;;;5.43;4.93;;;2.80;99.90;;;;;;5033972;28;20231;-76
2020/12/30 02:17:21;;;;;;;5.85;5.03;;;2.80;99.90;;;;;;5034111;28;20687;-75
2020/12/30 02:19:46;;;;;;;5.93;4.60;;;2.90;99.90;;;;;;5034837;28;20223;-76
2020/12/30 02:22:19;;;;;;;6.00;4.90;;;2.80;99.90;;;;;;5033340;28;20224;-75
2020/12/30 02:24:45;;;;;;;5.88;4.75;;;2.80;99.90;;;;;;5035680;28;20223;-76
2020/12/30 02:27:11;;;;;;;6.70;5.05;;;2.80;99.90;;;;;;5027665;28;20210;-75
2020/12/30 02:29:37;;;;;;;7.23;5.07;;;2.80;99.90;;;;;;5015832;28;20576;-76
2020/12/30 02:32:03;;;;;;;5.43;4.93;;;2.80;99.90;;;;;;5020072;28;20467;-76
2020/12/30 02:34:29;;;;;;;6.33;5.30;;;2.80;99.90;;;;;;5033501;28;20193;-76
2020/12/30 02:36:56;;;;;;;6.90;5.18;;;2.80;99.90;;;;;;5030068;28;20456;-76
2020/12/30 02:39:21;;;;;;;6.28;4.63;;;2.80;99.90;;;;;;5014235;28;20204;-75
2020/12/30 02:41:48;;;;;;;7.87;5.30;;;2.80;99.90;;;;;;5020488;28;20201;-76
2020/12/30 02:44:14;;;;;;;5.75;4.88;;;2.80;99.90;;;;;;5033319;28;20801;-76
2020/12/30 02:46:40;;;;;;;5.00;4.38;;;2.70;99.90;;;;;;5025519;28;20216;-76
2020/12/30 02:49:06;;;;;;;5.07;4.57;;;2.70;99.90;;;;;;5013200;28;20170;-76
2020/12/30 02:51:31;;;;;;;5.35;4.20;;;2.70;99.90;;;;;;5018108;28;20211;-75
2020/12/30 02:53:57;;;;;;;5.27;4.73;;;2.70;99.90;;;;;;5035086;28;20192;-76
2020/12/30 02:56:23;;;;;;;6.80;4.97;;;2.70;99.90;;;;;;5018767;28;20216;-75
2020/12/30 02:58:49;;;;;;;8.93;4.97;;;2.70;99.90;;;;;;5015621;28;20159;-75
2020/12/30 03:01:16;;;;;;;5.18;4.40;;;2.70;99.90;;;;;;5029885;28;20220;-75
2020/12/30 03:03:43;;;;;;;5.80;5.20;;;2.70;99.90;;;;;;5035408;28;20276;-75
2020/12/30 03:06:09;;;;;;;5.65;4.93;;;2.70;99.90;;;;;;5021140;28;20245;-76
2020/12/30 03:08:36;;;;;;;5.35;4.90;;;2.70;99.90;;;;;;5015614;28;20265;-75
2020/12/30 03:11:03;;;;;;;7.93;4.70;;;2.80;99.90;;;;;;5031052;28;20213;-76
2020/12/30 03:13:29;;;;;;;8.27;5.00;;;2.80;99.90;;;;;;5032422;28;20177;-76
2020/12/30 03:15:54;;;;;;;7.77;5.40;;;2.90;99.90;;;;;;5031520;28;20236;-76
2020/12/30 03:18:21;;;;;;;5.80;5.20;;;2.90;99.90;;;;;;5034953;28;20174;-75
2020/12/30 03:20:47;;;;;;;6.95;5.65;;;3.00;99.90;;;;;;5018550;28;20249;-76
2020/12/30 03:23:12;;;;;;;5.83;5.10;;;2.90;99.90;;;;;;5012395;28;20224;-77
2020/12/30 03:25:38;;;;;;;5.33;4.63;;;2.80;99.90;;;;;;5012056;28;20460;-76
2020/12/30 03:28:04;;;;;;;6.40;5.40;;;2.90;99.90;;;;;;5015978;28;20653;-77
2020/12/30 03:30:30;;;;;;;6.50;5.53;;;2.80;99.90;;;;;;5032274;28;20208;-76
2020/12/30 03:32:56;;;;;;;6.47;5.10;;;2.80;99.90;;;;;;5030157;28;20189;-76
2020/12/30 03:35:24;;;;;;;6.07;5.17;;;2.80;99.90;;;;;;5011555;28;20463;-76
2020/12/30 03:37:54;;;;;;;7.90;5.30;;;2.80;99.90;;;;;;5012376;28;20166;-76
2020/12/30 03:40:20;;;;;;;7.00;5.75;;;2.80;99.90;;;;;;5012730;28;20177;-76
2020/12/30 03:42:46;;;;;;;6.53;5.10;;;2.70;99.90;;;;;;5025478;28;20252;-76
2020/12/30 03:45:13;;;;;;;7.07;5.80;;;2.70;99.90;;;;;;5032216;28;20180;-76
2020/12/30 03:47:38;;;;;;;9.65;6.18;;;2.70;99.90;;;;;;5018849;28;20244;-76
2020/12/30 03:50:04;;;;;;;6.70;6.00;;;2.70;99.90;;;;;;5014265;28;20213;-76
2020/12/30 03:52:30;;;;;;;8.38;6.95;;;2.70;99.90;;;;;;5025462;28;20213;-75
2020/12/30 03:54:57;;;;;;;8.47;5.70;;;2.60;99.90;;;;;;5033727;28;20574;-75
2020/12/30 03:57:23;;;;;;;7.80;6.45;;;2.60;99.90;;;;;;5020678;28;20451;-76
2020/12/30 03:59:49;;;;;;;7.07;6.10;;;2.60;99.90;;;;;;5012174;28;20248;-76
2020/12/30 04:02:14;;;;;;;6.87;5.70;;;2.60;99.90;;;;;;5022849;28;20221;-77
2020/12/30 04:04:40;;;;;;;9.30;7.10;;;2.60;99.90;;;;;;5025303;28;20180;-76
2020/12/30 04:07:06;;;;;;;11.30;7.17;;;2.60;99.90;;;;;;5030274;28;20575;-77
2020/12/30 04:09:31;;;;;;;7.43;6.10;;;2.50;99.90;;;;;;5029381;28;20204;-76
2020/12/30 04:11:57;;;;;;;7.33;6.63;;;2.50;99.90;;;;;;5012899;28;20297;-76
2020/12/30 04:14:23;;;;;;;9.97;5.40;;;2.50;99.90;;;;;;5011784;28;20193;-76
2020/12/30 04:16:48;;;;;;;7.97;5.80;;;2.50;99.90;;;;;;5029283;28;20213;-76
2020/12/30 04:19:14;;;;;;;8.17;6.20;;;2.40;99.90;;;;;;5031733;28;20176;-77
2020/12/30 04:21:40;;;;;;;8.53;5.93;;;2.50;99.90;;;;;;5015118;28;20217;-75
2020/12/30 04:24:06;;;;;;;6.37;5.60;;;2.50;99.90;;;;;;5013854;28;20190;-75
2020/12/30 04:26:31;;;;;;;8.17;6.10;;;2.50;99.90;;;;;;5028757;28;20213;-75
2020/12/30 04:28:57;;;;;;;7.97;5.77;;;2.40;99.90;;;;;;5033789;28;20283;-75
2020/12/30 04:31:23;;;;;;;7.27;6.30;;;2.40;99.90;;;;;;5012736;28;20236;-76
2020/12/30 04:33:48;;;;;;;9.87;6.10;;;2.40;99.90;;;;;;5011386;28;20240;-76
2020/12/30 04:36:14;;;;;;;8.90;6.20;;;2.30;99.90;;;;;;5029481;28;20208;-77
2020/12/30 04:38:41;;;;;;;8.55;6.40;;;2.30;99.90;;;;;;5021980;28;20174;-76
2020/12/30 04:41:13;;;;;;;9.27;7.07;;;2.30;99.90;;;;;;5011345;28;20212;-76
2020/12/30 04:43:42;;;;;;;7.50;5.47;;;2.30;99.90;;;;;;5022071;28;20252;-75
2020/12/30 04:46:12;;;;;;;8.77;6.40;;;2.30;99.90;;;;;;5032763;28;20607;-76
2020/12/30 04:48:38;;;;;;;8.02;7.10;;;2.30;99.90;;;;;;5026025;28;20165;-75
2020/12/30 04:51:04;;;;;;;9.50;6.97;;;2.30;99.90;;;;;;5012995;28;20217;-76
2020/12/30 04:53:30;;;;;;;7.50;5.87;;;2.20;99.90;;;;;;5018757;28;20559;-75
2020/12/30 04:56:00;;;;;;;7.82;6.40;;;2.20;99.90;;;;;;5032919;28;20247;-75
2020/12/30 04:58:28;;;;;;;8.48;6.07;;;2.20;99.90;;;;;;5033530;28;20173;-75
2020/12/30 05:00:54;;;;;;;10.05;7.32;;;2.20;99.90;;;;;;5028467;28;20673;-75
2020/12/30 05:03:29;;;;;;;8.88;6.72;;;2.20;99.90;;;;;;5033758;28;20663;-75
2020/12/30 05:06:03;;;;;;;8.30;5.93;;;2.20;99.90;;;;;;5024073;28;20217;-77
2020/12/30 05:08:34;;;;;;;7.72;6.35;;;2.20;99.90;;;;;;5011578;28;20745;-76
2020/12/30 05:11:00;;;;;;;8.95;6.72;;;2.20;99.90;;;;;;5012097;28;20217;-75
2020/12/30 05:13:27;;;;;;;6.85;5.30;;;2.20;99.90;;;;;;5012936;28;20194;-76
2020/12/30 05:15:53;;;;;;;8.45;6.50;;;2.20;99.90;;;;;;5020614;28;20225;-76
2020/12/30 05:18:19;;;;;;;10.63;6.63;;;2.20;99.90;;;;;;5035028;28;20196;-76
2020/12/30 05:20:46;;;;;;;7.55;6.38;;;2.20;99.90;;;;;;5019507;28;20641;-76
2020/12/30 05:23:13;;;;;;;8.20;6.40;;;2.20;99.90;;;;;;5016465;28;20186;-76
2020/12/30 05:25:41;;;;;;;8.52;6.00;;;2.20;99.90;;;;;;5029544;28;20228;-75
2020/12/30 05:28:09;;;;;;;7.47;6.55;;;2.20;99.90;;;;;;5035201;28;20189;-76
2020/12/30 05:30:36;;;;;;;12.35;6.22;;;2.20;99.90;;;;;;5033282;28;20170;-75
2020/12/30 05:33:03;;;;;;;8.70;6.57;;;2.20;99.90;;;;;;5034747;28;20177;-76
2020/12/30 05:35:30;;;;;;;9.85;7.10;;;2.20;99.90;;;;;;5032938;28;20319;-76
2020/12/30 05:37:56;;;;;;;10.55;6.63;;;2.20;99.90;;;;;;5034460;28;20208;-76
2020/12/30 05:40:29;;;;;;;7.82;6.63;;;2.20;99.90;;;;;;5015738;28;20640;-75
2020/12/30 05:43:12;;;;;;;13.82;7.18;;;2.20;99.90;;;;;;5027132;28;20192;-75
2020/12/30 05:45:49;;;;;;;10.45;7.13;;;2.20;99.90;;;;;;5035456;28;20224;-75
2020/12/30 05:48:16;;;;;;;7.90;5.95;;;2.20;99.90;;;;;;5022164;28;20165;-75
2020/12/30 05:50:49;;;;;;;7.72;6.53;;;2.10;99.90;;;;;;5016198;28;20214;-75
2020/12/30 05:53:14;;;;;;;9.95;7.00;;;2.10;99.90;;;;;;5014821;28;20679;-76
2020/12/30 05:55:41;;;;;;;10.33;6.50;;;2.10;99.90;;;;;;5013535;28;20305;-76
2020/12/30 05:58:13;;;;;;;9.07;6.88;;;2.10;99.90;;;;;;5030486;28;20460;-75
2020/12/30 06:00:39;;;;;;;10.77;7.72;;;2.00;99.90;;;;;;5035471;28;20213;-75
2020/12/30 06:03:05;;;;;;;9.83;6.70;;;2.00;99.90;;;;;;5019743;28;20197;-75
2020/12/30 06:05:31;;;;;;;11.00;8.03;;;2.00;99.90;;;;;;5014809;28;20405;-75
2020/12/30 06:07:56;;;;;;;9.80;7.37;;;2.00;99.90;;;;;;5028690;28;20179;-75
2020/12/30 06:10:24;;;;;;;8.57;6.50;;;2.00;99.90;;;;;;5033776;28;20408;-75
2020/12/30 06:12:51;;;;;;;11.55;6.80;;;2.00;99.90;;;;;;5026899;28;20182;-75
2020/12/30 06:15:24;;;;;;;11.93;7.32;;;1.90;99.90;;;;;;5015479;28;20762;-76
2020/12/30 06:17:59;;;;;;;9.38;7.22;;;1.90;99.90;;;;;;5022683;28;20628;-75
2020/12/30 06:20:33;;;;;;;16.05;9.60;;;1.90;99.90;;;;;;5034105;28;20256;-75
2020/12/30 06:23:11;;;;;;;13.38;8.60;;;1.90;99.90;;;;;;5032996;28;20678;-76
2020/12/30 06:25:42;;;;;;;12.52;8.02;;;1.90;99.90;;;;;;5030577;28;20626;-76
2020/12/30 06:28:17;;;;;;;13.48;9.38;;;1.90;99.90;;;;;;5028122;28;20154;-75
2020/12/30 06:30:44;;;;;;;12.63;8.23;;;2.00;99.90;;;;;;5033668;28;20236;-75
2020/12/30 06:33:11;;;;;;;15.82;10.70;;;1.90;99.90;;;;;;5018693;28;20189;-75
2020/12/30 06:35:39;;;;;;;13.30;9.77;;;2.00;99.90;;;;;;5026661;28;20313;-75
2020/12/30 06:38:18;;;;;;;12.40;9.25;;;2.00;99.90;;;;;;5014468;28;20209;-76
2020/12/30 06:40:56;;;;;;;11.55;8.55;;;2.00;99.90;;;;;;5017578;28;20219;-76
2020/12/30 06:43:43;;;;;;;13.27;8.48;;;2.00;99.90;;;;;;5031884;28;20181;-76
2020/12/30 06:46:10;;;;;;;12.45;9.15;;;2.00;99.90;;;;;;5029146;28;20718;-76
2020/12/30 06:48:59;;;;;;;13.43;9.30;;;2.00;99.90;;;;;;5031477;28;20177;-76
2020/12/30 06:51:26;;;;;;;11.88;9.23;;;2.00;99.90;;;;;;5032737;28;20219;-75
2020/12/30 06:53:56;;;;;;;12.88;9.05;;;2.00;99.90;;;;;;5027443;28;20257;-76
2020/12/30 06:56:42;;;;;;;12.50;9.15;;;2.00;99.90;;;;;;5019322;28;20284;-75
2020/12/30 06:59:08;;;;;;;10.82;8.55;;;2.00;99.90;;;;;;5020423;28;20269;-75
2020/12/30 07:01:54;;;;;;;17.27;9.35;;;2.00;99.90;;;;;;5033246;28;20220;-75
2020/12/30 07:04:23;;;;;;;10.70;8.45;;;2.00;99.90;;;;;;5032645;28;20773;-75
2020/12/30 07:06:48;;;;;;;13.68;9.07;;;2.00;99.90;;;;;;5031687;28;20224;-75
2020/12/30 07:09:15;;;;;;;14.07;9.20;;;1.90;99.90;;;;;;5020009;28;20188;-75
2020/12/30 07:11:51;;;;;;;9.98;8.18;;;1.90;99.90;;;;;;5032937;28;20217;-75
2020/12/30 07:14:22;;;;;;;13.60;9.52;;;1.90;99.90;;;;;;5021810;28;20190;-76
2020/12/30 07:16:49;;;;;;;12.10;9.60;;;1.90;99.90;;;;;;5024459;28;20204;-76
2020/12/30 07:19:20;;;;;;;14.40;8.80;;;1.90;99.90;;;;;;5032020;28;20173;-76
2020/12/30 07:21:55;;;;;;;16.38;9.90;;;1.90;99.90;;;;;;5032906;28;20275;-75
2020/12/30 07:24:27;;;;;;;13.75;9.70;;;1.90;99.90;;;;;;5033329;28;20165;-75
2020/12/30 07:26:54;;;;;;;15.23;10.60;;;1.80;99.90;;;;;;5011789;28;20224;-75
2020/12/30 07:29:21;;;;;;;13.00;10.70;;;1.80;99.90;;;;;;5014340;28;20473;-76
2020/12/30 07:31:50;;;;;;;15.95;10.70;;;1.80;99.90;;;;;;5020152;28;20240;-76
2020/12/30 07:34:20;;;;;;;14.35;10.10;;;1.80;99.90;;;;;;5032622;28;20269;-75
2020/12/30 07:36:47;;;;;;;12.68;10.40;;;1.80;99.90;;;;;;5012466;28;20221;-75
2020/12/30 07:39:13;;;;;;;12.43;9.30;;;1.90;99.90;;;;;;5030850;28;20196;-77
2020/12/30 07:41:46;;;;;;;19.42;12.00;;;1.90;99.90;;;;;;5030667;28;20221;-76
2020/12/30 07:44:12;;;;;;;16.95;11.52;;;2.00;99.90;;;;;;5030480;28;20240;-76
2020/12/30 07:46:38;;;;;;;15.75;10.95;;;2.00;99.90;;;;;;5031415;28;20631;-76
2020/12/30 07:49:12;;;;;;;16.90;12.05;;;2.00;99.90;;;;;;5015248;28;20185;-76
2020/12/30 07:51:56;;;;;;;18.17;12.15;;;2.00;99.90;;;;;;5011673;28;20248;-76
2020/12/30 07:54:23;;;;;;;15.90;11.98;;;1.90;99.90;;;;;;5013370;28;20194;-75
2020/12/30 07:56:50;;;;;;;15.32;11.48;;;1.90;99.90;;;;;;5013050;28;20676;-75
2020/12/30 07:59:21;;;;;;;16.88;12.25;;;1.90;99.90;;;;;;5031309;28;20205;-75
2020/12/30 08:01:54;;;;;;;16.35;11.25;;;1.90;99.90;;;;;;5032392;28;20244;-75
2020/12/30 08:04:20;;;;;;;16.40;11.68;;;1.90;99.90;;;;;;5032042;28;20259;-75
2020/12/30 08:06:46;;;;;;;13.37;10.60;;;1.90;99.90;;;;;;5032067;28;20236;-75
2020/12/30 08:09:13;;;;;;;14.65;10.20;;;1.90;99.90;;;;;;5015599;28;20189;-75
2020/12/30 08:11:50;;;;;;;18.70;12.65;;;2.00;99.90;;;;;;5012642;28;20259;-75
2020/12/30 08:14:17;;;;;;;15.30;10.80;;;2.00;99.90;;;;;;5032634;28;20205;-75
2020/12/30 08:17:05;;;;;;;15.63;11.20;;;2.00;99.90;;;;;;5026272;28;20324;-75
2020/12/30 08:19:42;;;;;;;13.90;10.35;;;2.00;99.90;;;;;;5027532;28;20161;-76
2020/12/30 08:22:12;;;;;;;13.85;9.73;;;2.00;99.90;;;;;;5030342;28;20275;-75
2020/12/30 08:24:49;;;;;;;16.63;11.40;;;2.00;99.90;;;;;;5021625;28;20222;-76
2020/12/30 08:27:19;;;;;;;26.80;19.33;;;2.10;99.90;;;;;;5013547;28;20204;-75
2020/12/30 08:29:46;;;;;;;21.55;15.70;;;2.10;99.90;;;;;;5031012;28;20177;-75
2020/12/30 08:32:13;;;;;;;18.83;13.07;;;2.10;99.90;;;;;;5019990;28;20210;-76
2020/12/30 08:34:44;;;;;;;18.20;11.63;;;2.20;99.90;;;;;;5011128;28;20193;-75
2020/12/30 08:37:14;;;;;;;16.70;12.25;;;2.30;99.90;;;;;;5019441;28;20602;-75
2020/12/30 08:39:48;;;;;;;15.75;12.75;;;2.30;99.90;;;;;;5031207;28;20303;-76
2020/12/30 08:42:32;;;;;;;18.77;12.45;;;2.30;99.90;;;;;;5021645;28;20206;-76
2020/12/30 08:45:03;;;;;;;15.55;11.73;;;2.50;99.90;;;;;;5020070;28;20184;-76
2020/12/30 08:47:36;;;;;;;20.02;11.73;;;2.50;99.90;;;;;;5014941;28;20569;-75
2020/12/30 08:50:04;;;;;;;16.35;11.48;;;2.50;99.90;;;;;;5022782;28;20188;-76
2020/12/30 08:52:40;;;;;;;13.55;9.88;;;2.40;99.90;;;;;;5034359;28;20213;-76
2020/12/30 08:55:06;;;;;;;15.43;10.45;;;2.40;99.90;;;;;;5025694;28;20197;-76
2020/12/30 08:57:32;;;;;;;13.60;10.00;;;2.40;99.90;;;;;;5028508;28;20263;-76
2020/12/30 09:00:18;;;;;;;14.63;9.87;;;2.50;99.90;;;;;;5015921;28;20158;-76
2020/12/30 09:02:44;;;;;;;16.55;9.75;;;2.40;99.90;;;;;;5034642;28;20219;-76
2020/12/30 09:05:10;;;;;;;14.65;9.90;;;2.50;99.90;;;;;;5033794;28;20209;-77
2020/12/30 09:07:38;;;;;;;12.90;9.50;;;2.50;99.90;;;;;;5034635;28;20291;-76
2020/12/30 09:10:09;;;;;;;14.60;8.93;;;2.50;99.90;;;;;;5023210;28;20415;-76
2020/12/30 09:12:38;;;;;;;14.35;9.07;;;2.60;99.90;;;;;;5034049;28;20220;-76
2020/12/30 09:15:07;;;;;;;13.82;8.27;;;2.70;99.90;;;;;;5025329;28;20216;-76
2020/12/30 09:17:36;;;;;;;11.35;8.30;;;2.70;99.90;;;;;;5014508;28;20218;-76
2020/12/30 09:20:16;;;;;;;12.27;9.02;;;2.80;99.90;;;;;;5014447;28;20190;-76
2020/12/30 09:22:44;;;;;;;14.40;9.30;;;2.80;99.90;;;;;;5027660;28;20204;-75
2020/12/30 09:25:31;;;;;;;13.60;8.32;;;2.90;99.90;;;;;;5022619;28;20645;-77
2020/12/30 09:27:58;;;;;;;9.88;7.40;;;2.90;99.90;;;;;;5014107;28;20581;-76
2020/12/30 09:30:26;;;;;;;10.80;7.30;;;2.90;99.90;;;;;;5020074;28;20531;-76
2020/12/30 09:32:54;;;;;;;10.23;8.32;;;3.00;99.90;;;;;;5028739;28;20224;-76
2020/12/30 09:35:27;;;;;;;12.15;8.82;;;3.00;99.90;;;;;;5034068;28;20284;-76
2020/12/30 09:37:55;;;;;;;12.70;8.25;;;3.00;99.90;;;;;;5017648;28;20183;-75
2020/12/30 09:40:21;;;;;;;13.05;8.80;;;3.10;99.90;;;;;;5016411;28;20226;-76
2020/12/30 09:42:47;;;;;;;13.15;7.78;;;3.10;99.90;;;;;;5034865;28;20652;-75
2020/12/30 09:45:15;;;;;;;11.00;6.93;;;3.00;99.90;;;;;;5031542;28;20251;-76
2020/12/30 09:47:42;;;;;;;8.52;6.80;;;3.00;99.90;;;;;;5014165;28;20449;-76
2020/12/30 09:50:10;;;;;;;10.07;7.35;;;3.20;99.90;;;;;;5016909;28;20178;-76
2020/12/30 09:52:41;;;;;;;11.52;7.68;;;3.30;99.90;;;;;;5033493;28;20567;-75
2020/12/30 09:55:08;;;;;;;9.30;7.05;;;3.40;99.90;;;;;;5030513;28;20205;-76
2020/12/30 09:57:35;;;;;;;10.48;7.78;;;3.50;99.90;;;;;;5013868;28;20761;-76
2020/12/30 10:00:01;;;;;;;8.77;7.05;;;3.60;99.90;;;;;;5014984;28;20235;-76
2020/12/30 10:02:27;;;;;;;13.63;7.60;;;3.60;99.90;;;;;;5019172;28;20205;-75
2020/12/30 10:04:53;;;;;;;8.77;7.87;;;3.70;99.90;;;;;;5033019;28;20184;-76
2020/12/30 10:07:23;;;;;;;13.00;6.97;;;3.60;99.90;;;;;;5033313;28;20262;-75
2020/12/30 10:09:48;;;;;;;8.63;6.97;;;3.70;99.90;;;;;;5032751;28;20173;-76
2020/12/30 10:12:14;;;;;;;11.37;8.17;;;3.70;99.90;;;;;;5032267;28;20772;-77
2020/12/30 10:14:40;;;;;;;10.10;6.13;;;3.70;99.90;;;;;;5021183;28;20629;-76
2020/12/30 10:17:09;;;;;;;10.30;6.50;;;3.80;99.90;;;;;;5015575;28;20201;-76
2020/12/30 10:19:35;;;;;;;9.55;7.40;;;3.70;99.90;;;;;;5032821;28;21017;-75
2020/12/30 10:22:12;;;;;;;9.05;6.90;;;3.70;99.90;;;;;;5032688;28;20263;-75
2020/12/30 10:24:44;;;;;;;9.07;7.25;;;3.70;99.90;;;;;;5032197;28;20750;-76
2020/12/30 10:27:11;;;;;;;8.02;6.97;;;3.80;99.90;;;;;;5033057;28;20209;-76
2020/12/30 10:29:36;;;;;;;8.93;6.88;;;3.80;99.90;;;;;;5028067;28;20777;-75
2020/12/30 10:32:02;;;;;;;9.13;7.20;;;3.70;99.90;;;;;;5033258;28;20209;-75
2020/12/30 10:34:28;;;;;;;8.85;7.20;;;3.80;99.90;;;;;;5024180;28;20209;-76
2020/12/30 10:36:53;;;;;;;7.60;6.63;;;3.90;99.90;;;;;;5013419;28;20210;-75
2020/12/30 10:39:19;;;;;;;10.77;7.40;;;3.90;99.90;;;;;;5023050;28;20829;-75
2020/12/30 10:41:45;;;;;;;9.20;6.77;;;3.90;99.90;;;;;;5046036;28;20208;-75
2020/12/30 10:44:11;;;;;;;8.60;6.73;;;3.90;99.90;;;;;;5033086;28;20173;-75
2020/12/30 10:46:37;;;;;;;10.48;6.72;;;4.00;99.90;;;;;;5038092;28;20683;-75
2020/12/30 10:49:03;;;;;;;10.17;7.50;;;4.00;99.90;;;;;;5044656;28;20170;-75
2020/12/30 10:51:28;;;;;;;6.97;5.30;;;4.10;99.90;;;;;;5032863;28;20232;-75
2020/12/30 10:53:54;;;;;;;7.57;5.97;;;4.20;99.90;;;;;;5014642;28;20268;-76
2020/12/30 10:56:20;;;;;;;7.93;6.10;;;4.10;99.90;;;;;;5013211;28;20217;-75
2020/12/30 10:58:45;;;;;;;8.30;6.63;;;4.10;99.90;;;;;;5026719;28;20195;-75
2020/12/30 11:01:13;;;;;;;6.73;6.00;;;4.10;99.90;;;;;;5032807;28;20213;-76
2020/12/30 11:03:39;;;;;;;9.45;6.40;;;4.10;99.90;;;;;;5022618;28;20225;-76
2020/12/30 11:06:06;;;;;;;11.75;6.50;;;4.10;99.90;;;;;;5025028;28;20737;-76
2020/12/30 11:08:33;;;;;;;12.10;7.28;;;4.10;99.90;;;;;;5033142;28;20540;-76
2020/12/30 11:11:04;;;;;;;8.13;6.07;;;4.20;99.90;;;;;;5019901;28;20220;-75
2020/12/30 11:13:30;;;;;;;9.27;6.72;;;4.20;99.90;;;;;;5012230;28;20737;-75
2020/12/30 11:15:56;;;;;;;7.43;6.40;;;4.20;99.90;;;;;;5021184;28;20224;-75
2020/12/30 11:18:22;;;;;;;8.98;7.55;;;4.30;99.90;;;;;;5033730;28;20867;-75
2020/12/30 11:20:48;;;;;;;10.50;7.67;;;4.30;99.90;;;;;;5023214;28;20241;-75
2020/12/30 11:23:14;;;;;;;11.15;8.10;;;4.40;99.90;;;;;;5031911;28;20249;-75
2020/12/30 11:25:46;;;;;;;9.40;7.40;;;4.50;99.90;;;;;;5022371;28;20536;-76
2020/12/30 11:28:13;;;;;;;11.55;7.85;;;4.40;99.90;;;;;;5011722;28;20636;-76
2020/12/30 11:30:40;;;;;;;10.80;8.35;;;4.40;99.90;;;;;;5019195;28;20273;-76
2020/12/30 11:33:05;;;;;;;13.13;8.52;;;4.40;99.90;;;;;;5033704;28;20272;-75
2020/12/30 11:35:32;;;;;;;10.23;8.97;;;4.50;99.90;;;;;;5031616;28;20197;-75
2020/12/30 11:37:58;;;;;;;9.88;8.38;;;4.40;99.90;;;;;;5029019;28;20421;-75
2020/12/30 11:40:26;;;;;;;13.00;9.10;;;4.40;99.90;;;;;;5012708;28;20248;-75
2020/12/30 11:42:52;;;;;;;13.23;8.95;;;4.40;99.90;;;;;;5014840;28;20433;-75
2020/12/30 11:45:17;;;;;;;13.20;9.27;;;4.40;99.90;;;;;;5032109;28;20690;-76
2020/12/30 11:47:43;;;;;;;17.77;10.63;;;4.40;99.90;;;;;;5045731;28;20172;-75
2020/12/30 11:50:09;;;;;;;13.50;9.13;;;4.40;99.90;;;;;;5021207;28;20177;-76
2020/12/30 11:52:34;;;;;;;13.83;9.83;;;4.40;99.90;;;;;;5032123;28;20220;-76
2020/12/30 11:55:00;;;;;;;12.27;9.70;;;4.40;99.90;;;;;;5013073;28;20201;-75
2020/12/30 11:57:29;;;;;;;12.53;9.33;;;4.40;99.90;;;;;;5020049;28;20216;-76
2020/12/30 11:59:55;;;;;;;14.48;9.82;;;4.30;99.90;;;;;;5031004;28;20591;-76
2020/12/30 12:02:21;;;;;;;12.10;9.40;;;4.40;99.90;;;;;;5037258;28;20304;-75
2020/12/30 12:04:46;;;;;;;14.23;8.57;;;4.40;99.90;;;;;;5031722;28;20411;-76
2020/12/30 12:07:12;;;;;;;15.23;8.43;;;4.50;99.90;;;;;;5017194;28;20495;-76
2020/12/30 12:09:38;;;;;;;14.60;8.87;;;4.50;99.90;;;;;;5011291;28;20174;-76
2020/12/30 12:12:03;;;;;;;11.43;9.03;;;4.50;99.90;;;;;;5021690;28;20221;-76
2020/12/30 12:14:29;;;;;;;13.73;9.67;;;4.50;99.90;;;;;;5029806;28;20201;-76
2020/12/30 12:16:56;;;;;;;12.90;9.20;;;4.60;99.90;;;;;;5029497;28;20201;-76
2020/12/30 12:19:23;;;;;;;11.60;9.43;;;4.60;99.90;;;;;;5030800;28;20165;-76
2020/12/30 12:21:50;;;;;;;10.85;8.13;;;4.50;99.90;;;;;;5023568;28;20210;-77
2020/12/30 12:24:17;;;;;;;11.82;9.07;;;4.50;99.90;;;;;;5011437;28;20158;-76
2020/12/30 12:26:43;;;;;;;11.73;9.18;;;4.50;99.90;;;;;;5016840;28;20303;-76
2020/12/30 12:29:42;;;;;;;13.18;9.93;;;4.60;99.90;;;;;;5021358;28;20174;-76
2020/12/30 12:32:23;;;;;;;11.10;8.95;;;4.50;99.90;;;;;;5008582;28;20213;-76
2020/12/30 12:34:52;;;;;;;10.63;8.65;;;4.50;99.90;;;;;;5013075;28;20193;-76
2020/12/30 12:37:20;;;;;;;12.10;8.93;;;4.60;99.90;;;;;;5023462;28;20232;-76
2020/12/30 12:39:47;;;;;;;13.55;10.27;;;4.60;99.90;;;;;;5023739;28;20170;-76
2020/12/30 12:42:13;;;;;;;11.88;7.85;;;4.70;99.90;;;;;;5014671;28;20247;-76
2020/12/30 12:44:40;;;;;;;13.57;8.85;;;4.70;99.90;;;;;;5030040;28;20177;-76
2020/12/30 12:47:06;;;;;;;12.45;8.80;;;4.70;99.90;;;;;;5029339;28;20202;-75
2020/12/30 12:49:32;;;;;;;12.80;10.07;;;4.70;99.90;;;;;;5032212;28;20162;-76
2020/12/30 12:51:59;;;;;;;11.37;8.70;;;4.70;99.90;;;;;;5016668;28;20588;-76
2020/12/30 12:54:25;;;;;;;11.13;9.63;;;4.70;99.90;;;;;;5010429;28;20189;-76